createdAt,value
2019-01-20T00:02:02.756Z,-2.70
2019-01-20T00:04:07.151Z,-2.70
2019-01-20T00:06:11.579Z,-2.80
2019-01-20T00:08:16.029Z,-2.80
2019-01-20T00:10:20.471Z,-2.80
2019-01-20T00:12:24.834Z,-2.80
2019-01-20T00:14:29.180Z,-2.80
2019-01-20T00:16:33.566Z,-2.80
2019-01-20T00:18:37.962Z,-2.80
2019-01-20T00:20:42.332Z,-2.80
2019-01-20T00:22:46.830Z,-2.80
2019-01-20T00:24:51.206Z,-2.80
2019-01-20T00:26:55.611Z,-2.80
2019-01-20T00:29:00.112Z,-2.90
2019-01-20T00:31:04.569Z,-2.90
2019-01-20T00:33:08.979Z,-2.90
2019-01-20T00:35:13.347Z,-2.90
2019-01-20T00:37:17.794Z,-2.90
2019-01-20T00:39:22.182Z,-3.00
2019-01-20T00:41:26.571Z,-2.90
2019-01-20T00:43:30.936Z,-3.00
2019-01-20T00:45:35.329Z,-3.10
2019-01-20T00:47:39.690Z,-3.10
2019-01-20T00:49:44.097Z,-3.10
2019-01-20T00:51:48.462Z,-3.20
2019-01-20T00:53:52.821Z,-3.20
2019-01-20T00:55:57.217Z,-3.20
2019-01-20T00:58:01.682Z,-3.30
2019-01-20T01:00:08.853Z,-3.30
2019-01-20T01:02:13.291Z,-3.30
2019-01-20T01:04:17.675Z,-3.30
2019-01-20T01:06:22.075Z,-3.30
2019-01-20T01:08:26.465Z,-3.30
2019-01-20T01:10:30.994Z,-3.30
2019-01-20T01:12:35.454Z,-3.40
2019-01-20T01:14:39.829Z,-3.40
2019-01-20T01:16:44.219Z,-3.40
2019-01-20T01:18:48.598Z,-3.40
2019-01-20T01:20:53.050Z,-3.50
2019-01-20T01:22:57.461Z,-3.50
2019-01-20T01:25:01.846Z,-3.50
2019-01-20T01:27:06.278Z,-3.50
2019-01-20T01:29:10.732Z,-3.50
2019-01-20T01:31:15.153Z,-3.60
2019-01-20T01:33:19.616Z,-3.50
2019-01-20T01:35:23.999Z,-3.50
2019-01-20T01:37:28.591Z,-3.50
2019-01-20T01:39:32.977Z,-3.50
2019-01-20T01:41:39.154Z,-3.50
2019-01-20T01:43:41.811Z,-3.50
2019-01-20T01:45:46.736Z,-3.50
2019-01-20T01:47:51.102Z,-3.50
2019-01-20T01:49:55.436Z,-3.50
2019-01-20T01:51:59.796Z,-3.60
2019-01-20T01:54:04.207Z,-3.60
2019-01-20T01:56:08.719Z,-3.60
2019-01-20T01:58:13.048Z,-3.60
2019-01-20T02:00:19.295Z,-3.70
2019-01-20T02:02:23.973Z,-3.70
2019-01-20T02:04:28.339Z,-3.70
2019-01-20T02:06:32.681Z,-3.70
2019-01-20T02:08:37.093Z,-3.70
2019-01-20T02:10:41.466Z,-3.70
2019-01-20T02:12:45.955Z,-3.70
2019-01-20T02:14:50.298Z,-3.80
2019-01-20T02:16:54.717Z,-3.80
2019-01-20T02:18:59.112Z,-3.80
2019-01-20T02:21:03.567Z,-3.80
2019-01-20T02:23:07.968Z,-3.80
2019-01-20T02:25:12.517Z,-3.80
2019-01-20T02:27:16.885Z,-3.80
2019-01-20T02:29:21.348Z,-3.80
2019-01-20T02:31:25.741Z,-3.90
2019-01-20T02:33:30.182Z,-3.90
2019-01-20T02:35:34.537Z,-3.80
2019-01-20T02:37:38.935Z,-3.90
2019-01-20T02:39:43.264Z,-3.90
2019-01-20T02:41:54.899Z,-3.90
2019-01-20T02:43:52.018Z,-3.90
2019-01-20T02:45:56.344Z,-3.90
2019-01-20T02:48:00.887Z,-3.90
2019-01-20T02:50:09.249Z,-3.90
2019-01-20T02:52:13.633Z,-3.90
2019-01-20T02:54:17.990Z,-3.90
2019-01-20T02:56:22.490Z,-4.00
2019-01-20T02:58:26.875Z,-4.00
2019-01-20T03:00:31.306Z,-4.00
2019-01-20T03:02:35.687Z,-4.00
2019-01-20T03:04:40.091Z,-4.00
2019-01-20T03:06:44.449Z,-4.00
2019-01-20T03:08:48.806Z,-4.00
2019-01-20T03:10:53.245Z,-4.10
2019-01-20T03:12:57.694Z,-4.10
2019-01-20T03:15:02.159Z,-4.10
2019-01-20T03:17:06.583Z,-4.10
2019-01-20T03:19:11.026Z,-4.10
2019-01-20T03:21:15.441Z,-4.20
2019-01-20T03:23:19.876Z,-4.20
2019-01-20T03:25:24.292Z,-4.20
2019-01-20T03:27:28.665Z,-4.20
2019-01-20T03:29:33.051Z,-4.30
2019-01-20T03:31:37.439Z,-4.30
2019-01-20T03:33:41.817Z,-4.30
2019-01-20T03:35:46.233Z,-4.30
2019-01-20T03:37:50.703Z,-4.30
2019-01-20T03:39:55.080Z,-4.40
2019-01-20T03:41:59.489Z,-4.40
2019-01-20T03:44:04.017Z,-4.40
2019-01-20T03:46:08.513Z,-4.50
2019-01-20T03:48:12.858Z,-4.50
2019-01-20T03:50:17.573Z,-4.50
2019-01-20T03:52:21.918Z,-4.50
2019-01-20T03:54:26.386Z,-4.50
2019-01-20T03:56:30.777Z,-4.50
2019-01-20T03:58:35.197Z,-4.50
2019-01-20T04:00:39.637Z,-4.50
2019-01-20T04:02:44.194Z,-4.50
2019-01-20T04:04:48.542Z,-4.60
2019-01-20T04:06:52.934Z,-4.60
2019-01-20T04:08:57.296Z,-4.60
2019-01-20T04:11:01.750Z,-4.60
2019-01-20T04:13:06.214Z,-4.50
2019-01-20T04:15:11.249Z,-4.60
2019-01-20T04:17:15.741Z,-4.60
2019-01-20T04:19:20.112Z,-4.60
2019-01-20T04:21:24.541Z,-4.60
2019-01-20T04:23:28.897Z,-4.60
2019-01-20T04:25:33.316Z,-4.60
2019-01-20T04:27:37.686Z,-4.50
2019-01-20T04:29:42.042Z,-4.60
2019-01-20T04:31:46.419Z,-4.70
2019-01-20T04:33:50.776Z,-4.60
2019-01-20T04:35:55.177Z,-4.60
2019-01-20T04:37:59.547Z,-4.60
2019-01-20T04:40:04.357Z,-4.60
2019-01-20T04:42:08.791Z,-4.60
2019-01-20T04:44:13.193Z,-4.60
2019-01-20T04:46:17.555Z,-4.60
2019-01-20T04:48:21.938Z,-4.60
2019-01-20T04:50:26.291Z,-4.60
2019-01-20T04:52:30.706Z,-4.70
2019-01-20T04:54:35.059Z,-4.60
2019-01-20T04:56:39.419Z,-4.70
2019-01-20T04:58:43.799Z,-4.70
2019-01-20T05:00:48.145Z,-4.70
2019-01-20T05:02:52.505Z,-4.80
2019-01-20T05:04:56.946Z,-4.80
2019-01-20T05:07:01.242Z,-4.80
2019-01-20T05:09:07.713Z,-4.90
2019-01-20T05:11:12.067Z,-4.90
2019-01-20T05:13:16.410Z,-4.90
2019-01-20T05:15:22.709Z,-4.90
2019-01-20T05:17:27.084Z,-5.00
2019-01-20T05:19:31.495Z,-5.00
2019-01-20T05:21:35.850Z,-5.00
2019-01-20T05:23:40.205Z,-5.00
2019-01-20T05:25:44.578Z,-5.00
2019-01-20T05:27:48.958Z,-5.00
2019-01-20T05:29:53.352Z,-5.00
2019-01-20T05:31:57.719Z,-5.00
2019-01-20T05:34:02.076Z,-5.00
2019-01-20T05:36:06.478Z,-5.00
2019-01-20T05:38:10.901Z,-5.00
2019-01-20T05:40:17.383Z,-5.00
2019-01-20T05:42:20.569Z,-5.00
2019-01-20T05:44:24.960Z,-5.10
2019-01-20T05:46:29.443Z,-5.10
2019-01-20T05:48:33.834Z,-5.10
2019-01-20T05:50:38.214Z,-5.00
2019-01-20T05:52:42.589Z,-5.10
2019-01-20T05:54:46.940Z,-5.10
2019-01-20T05:56:51.345Z,-5.10
2019-01-20T05:58:55.687Z,-5.20
2019-01-20T06:01:00.059Z,-5.10
2019-01-20T06:03:04.406Z,-5.20
2019-01-20T06:05:08.886Z,-5.20
2019-01-20T06:07:13.319Z,-5.20
2019-01-20T06:09:17.710Z,-5.20
2019-01-20T06:11:22.074Z,-5.20
2019-01-20T06:13:26.509Z,-5.20
2019-01-20T06:15:30.922Z,-5.20
2019-01-20T06:17:35.275Z,-5.20
2019-01-20T06:19:39.677Z,-5.30
2019-01-20T06:21:44.050Z,-5.20
2019-01-20T06:23:48.462Z,-5.30
2019-01-20T06:25:52.822Z,-5.30
2019-01-20T06:27:57.191Z,-5.30
2019-01-20T06:30:01.578Z,-5.30
2019-01-20T06:32:06.055Z,-5.30
2019-01-20T06:34:10.461Z,-5.30
2019-01-20T06:36:14.858Z,-5.30
2019-01-20T06:38:19.215Z,-5.30
2019-01-20T06:40:23.629Z,-5.30
2019-01-20T06:42:27.986Z,-5.20
2019-01-20T06:44:32.357Z,-5.20
2019-01-20T06:46:36.774Z,-5.20
2019-01-20T06:48:41.182Z,-5.30
2019-01-20T06:50:45.561Z,-5.20
2019-01-20T06:52:50.013Z,-5.30
2019-01-20T06:54:54.454Z,-5.30
2019-01-20T06:56:58.871Z,-5.30
2019-01-20T06:59:03.256Z,-5.30
2019-01-20T07:01:07.634Z,-5.30
2019-01-20T07:03:12.014Z,-5.30
2019-01-20T07:05:16.492Z,-5.30
2019-01-20T07:07:20.852Z,-5.30
2019-01-20T07:09:25.354Z,-5.40
2019-01-20T07:11:29.919Z,-5.40
2019-01-20T07:13:34.249Z,-5.40
2019-01-20T07:15:38.621Z,-5.40
2019-01-20T07:17:43.067Z,-5.50
2019-01-20T07:19:47.407Z,-5.60
2019-01-20T07:21:51.799Z,-5.50
2019-01-20T07:23:56.198Z,-5.60
2019-01-20T07:26:00.552Z,-5.50
2019-01-20T07:28:04.936Z,-5.60
2019-01-20T07:30:12.494Z,-5.60
2019-01-20T07:32:16.988Z,-5.50
2019-01-20T07:34:21.314Z,-5.60
2019-01-20T07:36:31.969Z,-5.60
2019-01-20T07:38:36.361Z,-5.60
2019-01-20T07:40:40.756Z,-5.60
2019-01-20T07:42:45.143Z,-5.60
2019-01-20T07:44:49.565Z,-5.60
2019-01-20T07:46:53.937Z,-5.60
2019-01-20T07:48:58.280Z,-5.60
2019-01-20T07:51:02.650Z,-5.60
2019-01-20T07:53:07.032Z,-5.60
2019-01-20T07:55:11.409Z,-5.60
2019-01-20T07:57:15.754Z,-5.50
2019-01-20T07:59:20.182Z,-5.60
2019-01-20T08:01:24.543Z,-5.60
2019-01-20T08:03:29.456Z,-5.50
2019-01-20T08:05:34.195Z,-5.50
2019-01-20T08:07:38.820Z,-5.40
2019-01-20T08:09:43.243Z,-5.40
2019-01-20T08:11:48.351Z,-5.40
2019-01-20T08:13:52.911Z,-5.30
2019-01-20T08:15:58.655Z,-5.30
2019-01-20T08:18:03.156Z,-5.30
2019-01-20T08:20:11.331Z,-5.20
2019-01-20T08:22:15.810Z,-5.20
2019-01-20T08:24:20.426Z,-5.10
2019-01-20T08:26:24.886Z,-5.10
2019-01-20T08:28:29.355Z,-5.10
2019-01-20T08:30:33.794Z,-5.10
2019-01-20T08:32:38.354Z,-5.10
2019-01-20T08:34:42.803Z,-5.00
2019-01-20T08:36:47.150Z,-5.00
2019-01-20T08:38:51.551Z,-5.00
2019-01-20T08:40:55.894Z,-4.90
2019-01-20T08:43:00.726Z,-4.80
2019-01-20T08:45:08.888Z,-4.80
2019-01-20T08:47:24.502Z,-4.80
2019-01-20T08:49:29.401Z,-4.70
2019-01-20T08:51:34.765Z,-4.70
2019-01-20T08:53:39.194Z,-4.70
2019-01-20T08:55:43.622Z,-4.60
2019-01-20T08:57:48.053Z,-4.60
2019-01-20T08:59:52.463Z,-4.50
2019-01-20T09:01:56.893Z,-4.50
2019-01-20T09:04:01.298Z,-4.40
2019-01-20T09:06:05.677Z,-4.30
2019-01-20T09:08:10.043Z,-4.20
2019-01-20T09:10:19.614Z,-4.20
2019-01-20T09:12:26.181Z,-4.10
2019-01-20T09:14:30.600Z,-4.10
2019-01-20T09:16:34.986Z,-4.10
2019-01-20T09:18:39.367Z,-4.00
2019-01-20T09:20:43.749Z,-3.90
2019-01-20T09:22:48.165Z,-3.90
2019-01-20T09:24:52.551Z,-3.80
2019-01-20T09:26:57.174Z,-3.80
2019-01-20T09:29:01.570Z,-3.70
2019-01-20T09:31:05.930Z,-3.70
2019-01-20T09:33:10.358Z,-3.70
2019-01-20T09:35:15.092Z,-3.60
2019-01-20T09:37:19.468Z,-3.50
2019-01-20T09:39:23.874Z,-3.50
2019-01-20T09:41:28.265Z,-3.50
2019-01-20T09:43:32.606Z,-3.40
2019-01-20T09:45:37.241Z,-3.30
2019-01-20T09:47:44.125Z,-3.30
2019-01-20T09:49:48.574Z,-3.20
2019-01-20T09:51:52.942Z,-3.20
2019-01-20T09:53:57.601Z,-3.20
2019-01-20T09:56:02.042Z,-3.10
2019-01-20T09:58:07.360Z,-3.10
2019-01-20T10:00:25.567Z,-3.00
2019-01-20T10:02:29.987Z,-3.00
2019-01-20T10:04:34.341Z,-2.90
2019-01-20T10:06:38.727Z,-2.90
2019-01-20T10:08:43.110Z,-2.80
2019-01-20T10:10:47.439Z,-2.80
2019-01-20T10:12:51.791Z,-2.70
2019-01-20T10:14:56.190Z,-2.70
2019-01-20T10:17:00.532Z,-2.60
2019-01-20T10:19:04.921Z,-2.50
2019-01-20T10:21:09.374Z,-2.40
2019-01-20T10:23:13.772Z,-2.50
2019-01-20T10:25:18.121Z,-2.40
2019-01-20T10:27:22.539Z,-2.40
2019-01-20T10:29:26.934Z,-2.30
2019-01-20T10:31:31.261Z,-2.20
2019-01-20T10:33:35.655Z,-2.10
2019-01-20T10:36:10.754Z,-2.10
2019-01-20T10:38:15.221Z,-2.10
2019-01-20T10:40:19.677Z,-2.10
2019-01-20T10:42:24.099Z,-2.00
2019-01-20T10:44:28.616Z,-2.00
2019-01-20T10:46:33.169Z,-2.00
2019-01-20T10:48:37.585Z,-1.90
2019-01-20T10:50:42.064Z,-1.80
2019-01-20T10:52:46.710Z,-1.80
2019-01-20T10:54:51.142Z,-1.70
2019-01-20T10:56:55.560Z,-1.70
2019-01-20T10:59:00.057Z,-1.60
2019-01-20T11:01:04.531Z,-1.60
2019-01-20T11:03:09.101Z,-1.60
2019-01-20T11:05:13.867Z,-1.50
2019-01-20T11:07:18.350Z,-1.50
2019-01-20T11:09:22.864Z,-1.40
2019-01-20T11:11:27.389Z,-1.40
2019-01-20T11:13:31.978Z,-1.30
2019-01-20T11:15:36.528Z,-1.20
2019-01-20T11:17:40.967Z,-1.20
2019-01-20T11:19:45.516Z,-1.20
2019-01-20T11:21:49.980Z,-1.10
2019-01-20T11:23:54.448Z,-1.10
2019-01-20T11:25:58.935Z,-1.10
2019-01-20T11:28:03.457Z,-1.00
2019-01-20T11:30:09.331Z,-1.00
2019-01-20T11:32:13.814Z,-0.90
2019-01-20T11:34:18.289Z,-0.90
2019-01-20T11:36:22.787Z,-0.80
2019-01-20T11:38:27.337Z,-0.80
2019-01-20T11:40:31.862Z,-0.70
2019-01-20T11:42:36.324Z,-0.70
2019-01-20T11:44:40.784Z,-0.70
2019-01-20T11:46:45.263Z,-0.60
2019-01-20T11:48:49.736Z,-0.50
2019-01-20T11:50:54.734Z,-0.50
2019-01-20T11:52:59.265Z,-0.40
2019-01-20T11:55:03.790Z,-0.40
2019-01-20T11:57:08.307Z,-0.40
2019-01-20T11:59:12.728Z,-0.30
2019-01-20T12:01:17.175Z,-0.30
2019-01-20T12:03:21.610Z,-0.30
2019-01-20T12:05:26.081Z,-0.20
2019-01-20T12:07:30.577Z,-0.20
2019-01-20T12:09:35.176Z,-0.20
2019-01-20T12:11:39.581Z,-0.10
2019-01-20T12:13:44.015Z,-0.10
2019-01-20T12:15:48.637Z,-0.10
2019-01-20T12:17:53.148Z,0.00
2019-01-20T12:19:57.626Z,0.10
2019-01-20T12:22:02.238Z,0.10
2019-01-20T12:24:06.731Z,0.10
2019-01-20T12:26:11.247Z,0.10
2019-01-20T12:28:15.681Z,0.20
2019-01-20T12:30:22.358Z,0.20
2019-01-20T12:32:26.770Z,0.20
2019-01-20T12:34:32.025Z,0.30
2019-01-20T12:36:35.713Z,0.30
2019-01-20T12:38:40.126Z,0.30
2019-01-20T12:40:47.574Z,0.40
2019-01-20T12:42:52.062Z,0.40
2019-01-20T12:44:56.510Z,0.50
2019-01-20T12:47:01.603Z,0.50
2019-01-20T12:49:06.226Z,0.60
2019-01-20T12:51:12.417Z,0.60
2019-01-20T12:53:15.218Z,0.60
2019-01-20T12:55:19.691Z,0.70
2019-01-20T12:57:24.356Z,0.70
2019-01-20T12:59:28.817Z,0.70
2019-01-20T13:01:33.418Z,0.80
2019-01-20T13:03:37.911Z,0.80
2019-01-20T13:05:42.346Z,0.80
2019-01-20T13:07:47.335Z,0.90
2019-01-20T13:09:51.976Z,0.90
2019-01-20T13:11:56.521Z,0.90
2019-01-20T13:14:00.937Z,1.00
2019-01-20T13:16:05.490Z,1.00
2019-01-20T13:18:09.987Z,1.00
2019-01-20T13:20:17.161Z,1.10
2019-01-20T13:22:21.558Z,1.10
2019-01-20T13:24:26.955Z,1.10
2019-01-20T13:26:31.424Z,1.10
2019-01-20T13:28:35.859Z,1.10
2019-01-20T13:30:40.350Z,1.10
2019-01-20T13:32:44.841Z,1.10
2019-01-20T13:34:49.245Z,1.20
2019-01-20T13:36:53.867Z,1.20
2019-01-20T13:38:58.283Z,1.20
2019-01-20T13:41:14.790Z,1.20
2019-01-20T13:43:19.261Z,1.20
2019-01-20T13:45:30.170Z,1.20
2019-01-20T13:47:34.598Z,1.20
2019-01-20T13:49:39.099Z,1.20
2019-01-20T13:51:43.515Z,1.20
2019-01-20T13:53:47.979Z,1.20
2019-01-20T13:55:52.381Z,1.30
2019-01-20T13:57:56.943Z,1.30
2019-01-20T14:00:01.454Z,1.30
2019-01-20T14:02:05.982Z,1.20
2019-01-20T14:04:10.578Z,1.20
2019-01-20T14:06:14.997Z,1.20
2019-01-20T14:08:20.568Z,1.30
2019-01-20T14:10:25.174Z,1.30
2019-01-20T14:12:29.635Z,1.20
2019-01-20T14:14:34.088Z,1.20
2019-01-20T14:16:39.364Z,1.20
2019-01-20T14:18:45.368Z,1.30
2019-01-20T14:20:48.391Z,1.30
2019-01-20T14:22:52.896Z,1.30
2019-01-20T14:24:57.312Z,1.30
2019-01-20T14:27:01.749Z,1.30
2019-01-20T14:29:06.265Z,1.30
2019-01-20T14:31:10.826Z,1.30
2019-01-20T14:33:15.263Z,1.40
2019-01-20T14:35:19.811Z,1.40
2019-01-20T14:37:24.383Z,1.50
2019-01-20T14:39:28.773Z,1.50
2019-01-20T14:41:33.187Z,1.60
2019-01-20T14:43:37.792Z,1.60
2019-01-20T14:45:42.203Z,1.60
2019-01-20T14:47:46.794Z,1.60
2019-01-20T14:49:51.264Z,1.60
2019-01-20T14:51:55.786Z,1.60
2019-01-20T14:54:00.203Z,1.60
2019-01-20T14:56:06.873Z,1.60
2019-01-20T14:58:11.524Z,1.50
2019-01-20T15:00:18.874Z,1.50
2019-01-20T15:02:23.339Z,1.50
2019-01-20T15:04:30.856Z,1.50
2019-01-20T15:06:35.226Z,1.50
2019-01-20T15:08:39.727Z,1.50
2019-01-20T15:10:44.155Z,1.40
2019-01-20T15:12:50.243Z,1.40
2019-01-20T15:14:53.582Z,1.30
2019-01-20T15:17:01.075Z,1.30
2019-01-20T15:19:05.228Z,1.20
2019-01-20T15:21:09.804Z,1.20
2019-01-20T15:23:14.351Z,1.20
2019-01-20T15:25:19.116Z,1.20
2019-01-20T15:27:23.518Z,1.10
2019-01-20T15:29:28.021Z,1.10
2019-01-20T15:31:32.462Z,1.10
2019-01-20T15:33:36.898Z,1.10
2019-01-20T15:35:41.463Z,1.00
2019-01-20T15:37:46.043Z,1.00
2019-01-20T15:39:50.461Z,1.00
2019-01-20T15:41:54.946Z,1.00
2019-01-20T15:43:59.527Z,1.00
2019-01-20T15:46:04.030Z,1.00
2019-01-20T15:48:08.523Z,1.00
2019-01-20T15:50:21.989Z,1.00
2019-01-20T15:52:26.427Z,0.90
2019-01-20T15:54:30.971Z,0.90
2019-01-20T15:56:35.397Z,0.90
2019-01-20T15:58:39.895Z,0.90
2019-01-20T16:00:44.440Z,1.00
2019-01-20T16:02:48.967Z,1.00
2019-01-20T16:04:53.544Z,0.90
2019-01-20T16:06:58.615Z,0.90
2019-01-20T16:09:03.247Z,0.80
2019-01-20T16:11:07.850Z,0.90
2019-01-20T16:13:12.310Z,0.80
2019-01-20T16:15:24.673Z,0.80
2019-01-20T16:17:25.371Z,0.80
2019-01-20T16:19:29.866Z,0.80
2019-01-20T16:21:34.312Z,0.70
2019-01-20T16:23:38.767Z,0.70
2019-01-20T16:25:44.230Z,0.70
2019-01-20T16:27:48.766Z,0.70
2019-01-20T16:29:53.242Z,0.70
2019-01-20T16:31:57.857Z,0.60
2019-01-20T16:34:02.249Z,0.60
2019-01-20T16:36:06.726Z,0.50
2019-01-20T16:38:12.151Z,0.50
2019-01-20T16:40:18.743Z,0.50
2019-01-20T16:42:23.427Z,0.40
2019-01-20T16:44:27.924Z,0.40
2019-01-20T16:46:32.401Z,0.50
2019-01-20T16:48:36.914Z,0.40
2019-01-20T16:50:41.386Z,0.40
2019-01-20T16:52:46.005Z,0.40
2019-01-20T16:54:50.502Z,0.30
2019-01-20T16:56:55.481Z,0.30
2019-01-20T16:59:00.030Z,0.30
2019-01-20T17:01:04.595Z,0.20
2019-01-20T17:03:09.176Z,0.30
2019-01-20T17:05:13.762Z,0.20
2019-01-20T17:07:18.212Z,0.20
2019-01-20T17:09:22.684Z,0.10
2019-01-20T17:11:27.543Z,0.10
2019-01-20T17:13:32.038Z,0.10
2019-01-20T17:15:39.705Z,0.10
2019-01-20T17:17:42.663Z,0.10
2019-01-20T17:19:47.109Z,0.10
2019-01-20T17:21:51.546Z,0.10
2019-01-20T17:23:56.265Z,0.00
2019-01-20T17:26:00.962Z,0.00
2019-01-20T17:28:05.480Z,0.00
2019-01-20T17:30:13.294Z,-0.10
2019-01-20T17:32:17.786Z,-0.10
2019-01-20T17:34:22.184Z,-0.10
2019-01-20T17:36:26.563Z,-0.10
2019-01-20T17:38:31.172Z,-0.20
2019-01-20T17:40:35.576Z,-0.20
2019-01-20T17:42:40.017Z,-0.20
2019-01-20T17:44:44.434Z,-0.30
2019-01-20T17:46:48.982Z,-0.30
2019-01-20T17:48:53.356Z,-0.40
2019-01-20T17:50:57.804Z,-0.40
2019-01-20T17:53:02.240Z,-0.40
2019-01-20T17:55:07.047Z,-0.40
2019-01-20T17:57:11.454Z,-0.50
2019-01-20T17:59:16.087Z,-0.50
2019-01-20T18:01:20.459Z,-0.50
2019-01-20T18:03:25.878Z,-0.50
2019-01-20T18:05:30.358Z,-0.60
2019-01-20T18:07:34.797Z,-0.60
2019-01-20T18:09:39.242Z,-0.60
2019-01-20T18:11:43.642Z,-0.60
2019-01-20T18:13:48.935Z,-0.60
2019-01-20T18:15:54.806Z,-0.70
2019-01-20T18:17:58.871Z,-0.70
2019-01-20T18:20:02.880Z,-0.70
2019-01-20T18:22:07.420Z,-0.70
2019-01-20T18:24:11.926Z,-0.70
2019-01-20T18:26:16.471Z,-0.80
2019-01-20T18:28:20.976Z,-0.80
2019-01-20T18:30:26.520Z,-0.80
2019-01-20T18:32:31.686Z,-0.80
2019-01-20T18:34:36.274Z,-0.80
2019-01-20T18:36:40.891Z,-0.90
2019-01-20T18:38:45.409Z,-0.90
2019-01-20T18:40:49.999Z,-0.90
2019-01-20T18:42:54.549Z,-0.90
2019-01-20T18:44:59.124Z,-0.90
2019-01-20T18:47:03.760Z,-0.90
2019-01-20T18:49:08.410Z,-0.90
2019-01-20T18:51:13.091Z,-0.90
2019-01-20T18:53:18.992Z,-0.90
2019-01-20T18:55:23.641Z,-1.00
2019-01-20T18:57:28.277Z,-1.00
2019-01-20T18:59:33.145Z,-1.00
2019-01-20T19:01:37.705Z,-1.00
2019-01-20T19:03:42.319Z,-1.00
2019-01-20T19:05:46.853Z,-1.10
2019-01-20T19:07:55.360Z,-1.10
2019-01-20T19:09:56.146Z,-1.20
2019-01-20T19:12:00.692Z,-1.20
2019-01-20T19:14:05.172Z,-1.30
2019-01-20T19:16:09.675Z,-1.30
2019-01-20T19:18:18.907Z,-1.30
2019-01-20T19:20:20.048Z,-1.40
2019-01-20T19:22:24.506Z,-1.40
2019-01-20T19:24:28.918Z,-1.40
2019-01-20T19:26:34.129Z,-1.50
2019-01-20T19:28:38.567Z,-1.50
2019-01-20T19:30:42.987Z,-1.60
2019-01-20T19:32:47.539Z,-1.70
2019-01-20T19:34:51.951Z,-1.70
2019-01-20T19:36:56.455Z,-1.70
2019-01-20T19:39:00.942Z,-1.70
2019-01-20T19:41:05.412Z,-1.80
2019-01-20T19:43:09.881Z,-1.80
2019-01-20T19:45:16.077Z,-1.80
2019-01-20T19:47:20.561Z,-1.80
2019-01-20T19:49:24.985Z,-1.90
2019-01-20T19:51:29.419Z,-1.90
2019-01-20T19:53:33.880Z,-2.00
2019-01-20T19:55:39.313Z,-2.00
2019-01-20T19:57:43.839Z,-2.00
2019-01-20T19:59:48.328Z,-2.10
2019-01-20T20:01:52.781Z,-2.00
2019-01-20T20:03:57.245Z,-2.00
2019-01-20T20:06:01.783Z,-2.10
2019-01-20T20:08:06.279Z,-2.10
2019-01-20T20:10:11.644Z,-2.20
2019-01-20T20:12:16.099Z,-2.10
2019-01-20T20:14:20.526Z,-2.20
2019-01-20T20:16:24.955Z,-2.20
2019-01-20T20:18:29.418Z,-2.20
2019-01-20T20:20:33.811Z,-2.20
2019-01-20T20:22:40.089Z,-2.20
2019-01-20T20:24:44.574Z,-2.20
2019-01-20T20:26:49.003Z,-2.20
2019-01-20T20:28:53.447Z,-2.20
2019-01-20T20:30:58.104Z,-2.20
2019-01-20T20:33:02.591Z,-2.30
2019-01-20T20:35:07.750Z,-2.30
2019-01-20T20:37:12.208Z,-2.30
2019-01-20T20:39:16.767Z,-2.40
2019-01-20T20:41:21.369Z,-2.40
2019-01-20T20:43:25.804Z,-2.50
2019-01-20T20:45:30.369Z,-2.50
2019-01-20T20:47:34.739Z,-2.60
2019-01-20T20:49:39.189Z,-2.60
2019-01-20T20:51:43.946Z,-2.60
2019-01-20T20:53:49.652Z,-2.70
2019-01-20T20:55:52.869Z,-2.70
2019-01-20T20:57:57.395Z,-2.70
2019-01-20T21:00:02.009Z,-2.70
2019-01-20T21:02:06.503Z,-2.70
2019-01-20T21:04:11.083Z,-2.80
2019-01-20T21:06:15.600Z,-2.80
2019-01-20T21:08:20.251Z,-2.80
2019-01-20T21:10:24.898Z,-2.80
2019-01-20T21:12:29.383Z,-2.80
2019-01-20T21:14:33.793Z,-2.90
2019-01-20T21:16:38.369Z,-2.90
2019-01-20T21:18:42.856Z,-2.90
2019-01-20T21:20:47.300Z,-2.90
2019-01-20T21:22:51.873Z,-2.90
2019-01-20T21:24:56.424Z,-2.90
2019-01-20T21:27:01.016Z,-2.90
2019-01-20T21:29:05.696Z,-2.90
2019-01-20T21:31:10.329Z,-2.90
2019-01-20T21:33:15.177Z,-3.00
2019-01-20T21:35:19.986Z,-3.00
2019-01-20T21:37:24.992Z,-3.00
2019-01-20T21:39:29.552Z,-3.00
2019-01-20T21:41:34.004Z,-3.00
2019-01-20T21:43:38.551Z,-3.00
2019-01-20T21:45:43.044Z,-3.00
2019-01-20T21:47:47.590Z,-3.10
2019-01-20T21:49:52.222Z,-3.10
2019-01-20T21:51:56.836Z,-3.10
2019-01-20T21:54:01.280Z,-3.10
2019-01-20T21:56:05.851Z,-3.10
2019-01-20T21:58:10.734Z,-3.20
2019-01-20T22:00:17.738Z,-3.20
2019-01-20T22:02:22.262Z,-3.20
2019-01-20T22:04:26.708Z,-3.30
2019-01-20T22:06:31.184Z,-3.30
2019-01-20T22:08:35.716Z,-3.30
2019-01-20T22:10:40.161Z,-3.40
2019-01-20T22:12:44.683Z,-3.40
2019-01-20T22:14:49.178Z,-3.40
2019-01-20T22:16:53.568Z,-3.40
2019-01-20T22:18:57.958Z,-3.50
2019-01-20T22:21:02.456Z,-3.50
2019-01-20T22:23:07.694Z,-3.50
2019-01-20T22:25:12.267Z,-3.50
2019-01-20T22:27:16.734Z,-3.50
2019-01-20T22:29:21.098Z,-3.60
2019-01-20T22:31:25.539Z,-3.50
2019-01-20T22:33:29.955Z,-3.60
2019-01-20T22:35:34.368Z,-3.60
2019-01-20T22:37:38.971Z,-3.60
2019-01-20T22:39:43.354Z,-3.70
2019-01-20T22:41:47.749Z,-3.70
2019-01-20T22:43:52.442Z,-3.70
2019-01-20T22:45:56.804Z,-3.70
2019-01-20T22:48:01.201Z,-3.80
2019-01-20T22:50:06.617Z,-3.80
2019-01-20T22:52:11.305Z,-3.80
2019-01-20T22:54:15.685Z,-3.80
2019-01-20T22:56:20.034Z,-3.80
2019-01-20T22:58:24.458Z,-3.90
2019-01-20T23:00:37.900Z,-3.90
2019-01-20T23:02:42.351Z,-3.80
2019-01-20T23:04:46.772Z,-3.90
2019-01-20T23:06:51.139Z,-3.90
2019-01-20T23:08:55.576Z,-3.90
2019-01-20T23:10:59.991Z,-4.00
2019-01-20T23:13:04.489Z,-4.00
2019-01-20T23:15:09.318Z,-4.00
2019-01-20T23:17:13.703Z,-4.00
2019-01-20T23:19:19.015Z,-4.00
2019-01-20T23:21:23.429Z,-4.00
2019-01-20T23:23:27.906Z,-4.10
2019-01-20T23:25:32.266Z,-4.10
2019-01-20T23:27:36.754Z,-4.10
2019-01-20T23:29:41.182Z,-4.10
2019-01-20T23:31:45.619Z,-4.10
2019-01-20T23:33:49.988Z,-4.10
2019-01-20T23:35:54.414Z,-4.10
2019-01-20T23:37:58.872Z,-4.10
2019-01-20T23:40:03.354Z,-4.10
2019-01-20T23:42:07.817Z,-4.10
2019-01-20T23:44:12.357Z,-4.20
2019-01-20T23:46:16.802Z,-4.30
2019-01-20T23:48:21.379Z,-4.30
2019-01-20T23:50:25.850Z,-4.30
2019-01-20T23:52:30.215Z,-4.40
2019-01-20T23:54:34.591Z,-4.40
2019-01-20T23:56:38.975Z,-4.40
2019-01-20T23:58:43.315Z,-4.50
